createdAt,value
2022-12-15T00:01:47.610Z,16.47
2022-12-15T00:04:33.018Z,18.53
2022-12-15T00:07:18.465Z,17.40
2022-12-15T00:10:04.070Z,13.83
2022-12-15T00:12:49.431Z,17.90
2022-12-15T00:15:36.572Z,18.90
2022-12-15T00:18:23.860Z,17.87
2022-12-15T00:21:09.477Z,17.17
2022-12-15T00:23:55.090Z,21.77
2022-12-15T00:26:40.533Z,21.20
2022-12-15T00:29:26.471Z,24.87
2022-12-15T00:32:13.246Z,20.17
2022-12-15T00:34:58.522Z,19.47
2022-12-15T00:37:43.865Z,24.10
2022-12-15T00:40:11.943Z,21.53
2022-12-15T00:42:38.844Z,23.70
2022-12-15T00:45:06.578Z,21.30
2022-12-15T00:47:34.769Z,20.93
2022-12-15T00:50:20.052Z,22.07
2022-12-15T00:53:05.721Z,19.80
2022-12-15T00:55:51.336Z,23.53
2022-12-15T00:58:36.558Z,19.77
2022-12-15T01:01:25.188Z,21.97
2022-12-15T01:04:12.475Z,18.87
2022-12-15T01:06:58.420Z,23.40
2022-12-15T01:09:43.798Z,15.70
2022-12-15T01:12:29.148Z,17.03
2022-12-15T01:15:14.435Z,23.93
2022-12-15T01:17:59.877Z,18.67
2022-12-15T01:20:32.746Z,22.93
2022-12-15T01:22:59.627Z,23.27
2022-12-15T01:25:27.480Z,22.27
2022-12-15T01:27:54.694Z,18.33
2022-12-15T01:30:23.696Z,19.60
2022-12-15T01:32:50.900Z,18.90
2022-12-15T01:35:18.050Z,19.97
2022-12-15T01:37:46.683Z,17.73
2022-12-15T01:40:38.291Z,21.53
2022-12-15T01:43:11.753Z,23.97
2022-12-15T01:45:53.947Z,20.63
2022-12-15T01:48:33.385Z,19.23
2022-12-15T01:51:14.978Z,21.57
2022-12-15T01:53:50.122Z,21.23
2022-12-15T01:56:18.341Z,22.67
2022-12-15T01:58:47.637Z,20.57
2022-12-15T02:01:14.617Z,18.10
2022-12-15T02:03:43.575Z,18.07
2022-12-15T02:06:11.570Z,16.73
2022-12-15T02:08:39.233Z,18.80
2022-12-15T02:11:27.060Z,14.93
2022-12-15T02:14:01.180Z,16.37
2022-12-15T02:16:43.511Z,15.03
2022-12-15T02:19:30.947Z,18.63
2022-12-15T02:22:14.274Z,18.30
2022-12-15T02:25:02.447Z,16.87
2022-12-15T02:27:47.701Z,17.93
2022-12-15T02:30:41.255Z,19.53
2022-12-15T02:33:14.567Z,13.73
2022-12-15T02:35:50.214Z,18.33
2022-12-15T02:38:32.618Z,21.17
2022-12-15T02:41:00.891Z,17.27
2022-12-15T02:43:29.865Z,18.50
2022-12-15T02:46:10.007Z,18.70
2022-12-15T02:48:49.378Z,19.23
2022-12-15T02:51:31.617Z,19.20
2022-12-15T02:54:29.868Z,19.60
2022-12-15T02:57:05.928Z,15.80
2022-12-15T02:59:41.801Z,15.77
2022-12-15T03:02:12.505Z,18.40
2022-12-15T03:04:39.929Z,17.13
2022-12-15T03:07:10.211Z,20.03
2022-12-15T03:09:37.121Z,19.53
2022-12-15T03:12:04.508Z,21.07
2022-12-15T03:14:31.460Z,17.13
2022-12-15T03:16:58.452Z,20.63
2022-12-15T03:19:27.063Z,19.80
2022-12-15T03:21:53.923Z,19.67
2022-12-15T03:24:20.855Z,19.77
2022-12-15T03:26:50.129Z,18.57
2022-12-15T03:29:17.581Z,16.97
2022-12-15T03:31:44.883Z,21.37
2022-12-15T03:34:12.076Z,20.43
2022-12-15T03:36:40.731Z,19.93
2022-12-15T03:39:07.584Z,19.13
2022-12-15T03:41:34.509Z,19.93
2022-12-15T03:44:01.562Z,22.70
2022-12-15T03:46:28.484Z,17.20
2022-12-15T03:48:55.452Z,21.03
2022-12-15T03:51:22.474Z,20.77
2022-12-15T03:53:50.817Z,18.23
2022-12-15T03:56:18.170Z,18.10
2022-12-15T03:58:44.976Z,22.87
2022-12-15T04:01:13.319Z,18.10
2022-12-15T04:03:40.384Z,16.77
2022-12-15T04:06:07.584Z,22.00
2022-12-15T04:08:34.496Z,23.37
2022-12-15T04:11:02.700Z,21.33
2022-12-15T04:13:30.024Z,25.23
2022-12-15T04:15:57.273Z,24.20
2022-12-15T04:18:24.117Z,17.33
2022-12-15T04:20:50.924Z,19.20
2022-12-15T04:23:20.433Z,22.33
2022-12-15T04:26:06.195Z,22.03
2022-12-15T04:28:53.113Z,19.27
2022-12-15T04:31:42.157Z,18.43
2022-12-15T04:34:31.883Z,21.93
2022-12-15T04:37:17.376Z,18.90
2022-12-15T04:40:06.508Z,19.73
2022-12-15T04:42:53.302Z,22.87
2022-12-15T04:45:43.022Z,20.77
2022-12-15T04:48:29.654Z,17.70
2022-12-15T04:51:14.768Z,17.87
2022-12-15T04:54:01.784Z,18.63
2022-12-15T04:56:47.316Z,17.87
2022-12-15T04:59:36.032Z,19.40
2022-12-15T05:02:22.746Z,21.47
2022-12-15T05:05:08.091Z,19.33
2022-12-15T05:07:53.454Z,22.33
2022-12-15T05:10:38.749Z,23.20
2022-12-15T05:13:24.914Z,24.93
2022-12-15T05:16:10.540Z,22.73
2022-12-15T05:18:57.645Z,23.73
2022-12-15T05:21:43.124Z,21.50
2022-12-15T05:24:28.455Z,18.47
2022-12-15T05:27:13.838Z,21.50
2022-12-15T05:29:59.389Z,20.17
2022-12-15T05:32:26.158Z,23.23
2022-12-15T05:34:54.404Z,26.00
2022-12-15T05:37:21.241Z,30.33
2022-12-15T05:39:48.158Z,30.53
2022-12-15T05:42:15.093Z,35.53
2022-12-15T05:44:42.099Z,28.87
2022-12-15T05:47:09.262Z,35.87
2022-12-15T05:49:36.098Z,31.40
2022-12-15T05:52:04.686Z,29.53
2022-12-15T05:54:31.569Z,29.63
2022-12-15T05:56:58.489Z,32.17
2022-12-15T05:59:25.389Z,28.70
2022-12-15T06:01:52.300Z,29.50
2022-12-15T06:04:19.498Z,30.67
2022-12-15T06:06:46.530Z,30.10
2022-12-15T06:09:14.778Z,24.40
2022-12-15T06:11:41.788Z,27.47
2022-12-15T06:14:09.169Z,30.40
2022-12-15T06:16:42.608Z,26.73
2022-12-15T06:19:17.494Z,29.70
2022-12-15T06:21:44.319Z,35.13
2022-12-15T06:24:11.213Z,28.60
2022-12-15T06:26:40.171Z,27.57
2022-12-15T06:29:08.770Z,31.37
2022-12-15T06:31:36.785Z,26.43
2022-12-15T06:34:05.527Z,32.43
2022-12-15T06:36:32.540Z,27.57
2022-12-15T06:39:00.749Z,32.27
2022-12-15T06:41:29.692Z,28.20
2022-12-15T06:43:58.568Z,32.83
2022-12-15T06:46:26.975Z,29.90
2022-12-15T06:48:54.278Z,29.10
2022-12-15T06:51:21.450Z,30.50
2022-12-15T06:53:54.092Z,31.27
2022-12-15T06:56:28.863Z,34.00
2022-12-15T06:59:01.895Z,31.07
2022-12-15T07:01:29.486Z,31.07
2022-12-15T07:03:56.946Z,36.70
2022-12-15T07:06:24.138Z,30.73
2022-12-15T07:08:52.746Z,33.63
2022-12-15T07:11:21.173Z,34.10
2022-12-15T07:13:49.734Z,33.80
2022-12-15T07:16:18.788Z,34.30
2022-12-15T07:18:45.690Z,35.73
2022-12-15T07:21:13.070Z,29.60
2022-12-15T07:23:54.019Z,30.97
2022-12-15T07:26:21.478Z,33.40
2022-12-15T07:28:48.350Z,28.60
2022-12-15T07:31:15.670Z,32.57
2022-12-15T07:33:44.070Z,31.27
2022-12-15T07:36:11.266Z,32.17
2022-12-15T07:38:38.566Z,29.07
2022-12-15T07:41:07.459Z,28.20
2022-12-15T07:43:35.448Z,29.10
2022-12-15T07:46:03.363Z,27.13
2022-12-15T07:48:30.415Z,26.43
2022-12-15T07:51:07.229Z,32.97
2022-12-15T07:53:36.330Z,30.33
2022-12-15T07:56:08.372Z,39.77
2022-12-15T07:58:35.935Z,31.10
2022-12-15T08:01:05.262Z,29.17
2022-12-15T08:03:33.655Z,27.70
2022-12-15T08:06:05.647Z,30.27
2022-12-15T08:08:33.266Z,36.03
2022-12-15T08:11:04.761Z,34.33
2022-12-15T08:14:01.338Z,30.23
2022-12-15T08:16:20.490Z,34.20
2022-12-15T08:18:48.529Z,36.10
2022-12-15T08:21:17.103Z,31.50
2022-12-15T08:23:44.475Z,35.10
2022-12-15T08:26:13.309Z,31.70
2022-12-15T08:28:41.678Z,30.67
2022-12-15T08:31:10.779Z,32.13
2022-12-15T08:33:38.080Z,31.10
2022-12-15T08:36:07.697Z,29.20
2022-12-15T08:38:38.668Z,29.50
2022-12-15T08:41:09.502Z,25.90
2022-12-15T08:43:37.557Z,26.07
2022-12-15T08:46:08.118Z,26.53
2022-12-15T08:48:35.450Z,34.03
2022-12-15T08:51:02.668Z,29.97
2022-12-15T08:53:31.591Z,29.03
2022-12-15T08:56:04.136Z,28.80
2022-12-15T08:58:31.049Z,27.03
2022-12-15T09:01:00.699Z,25.43
2022-12-15T09:03:27.885Z,31.33
2022-12-15T09:05:55.319Z,31.47
2022-12-15T09:08:22.442Z,32.77
2022-12-15T09:10:52.659Z,28.03
2022-12-15T09:13:21.460Z,30.13
2022-12-15T09:16:12.051Z,36.70
2022-12-15T09:18:41.107Z,31.47
2022-12-15T09:21:08.782Z,36.93
2022-12-15T09:23:37.027Z,30.50
2022-12-15T09:26:06.743Z,32.20
2022-12-15T09:28:37.474Z,30.33
2022-12-15T09:31:05.615Z,32.40
2022-12-15T09:33:33.304Z,29.50
2022-12-15T09:36:01.226Z,33.47
2022-12-15T09:38:28.960Z,31.03
2022-12-15T09:40:56.352Z,38.03
2022-12-15T09:43:35.165Z,33.00
2022-12-15T09:46:22.156Z,33.73
2022-12-15T09:48:51.207Z,32.63
2022-12-15T09:51:19.502Z,46.87
2022-12-15T09:53:56.130Z,40.67
2022-12-15T09:56:31.791Z,37.13
2022-12-15T09:59:07.356Z,35.20
2022-12-15T10:01:51.098Z,34.17
2022-12-15T10:04:31.284Z,32.53
2022-12-15T10:07:07.527Z,37.30
2022-12-15T10:09:36.541Z,35.13
2022-12-15T10:12:09.776Z,38.07
2022-12-15T10:14:41.659Z,33.90
2022-12-15T10:17:21.398Z,34.70
2022-12-15T10:19:55.601Z,32.70
2022-12-15T10:22:25.931Z,29.03
2022-12-15T10:25:10.997Z,29.97
2022-12-15T10:28:03.718Z,34.13
2022-12-15T10:30:31.061Z,37.00
2022-12-15T10:33:02.759Z,37.17
2022-12-15T10:35:31.978Z,32.43
2022-12-15T10:38:01.486Z,34.97
2022-12-15T10:40:44.948Z,37.10
2022-12-15T10:43:26.309Z,37.00
2022-12-15T10:46:01.931Z,39.40
2022-12-15T10:48:30.638Z,37.03
2022-12-15T10:51:16.705Z,35.83
2022-12-15T10:53:50.277Z,38.13
2022-12-15T10:56:23.850Z,36.30
2022-12-15T10:58:56.223Z,40.17
2022-12-15T11:01:25.973Z,38.47
2022-12-15T11:03:55.157Z,38.77
2022-12-15T11:06:25.195Z,38.33
2022-12-15T11:08:55.529Z,34.53
2022-12-15T11:11:47.187Z,37.70
2022-12-15T11:14:17.670Z,36.00
2022-12-15T11:16:52.304Z,37.80
2022-12-15T11:19:37.215Z,41.83
2022-12-15T11:22:12.174Z,37.30
2022-12-15T11:24:45.248Z,46.53
2022-12-15T11:27:21.889Z,46.20
2022-12-15T11:30:01.490Z,39.40
2022-12-15T11:32:32.083Z,36.13
2022-12-15T11:35:01.047Z,37.50
2022-12-15T11:37:38.332Z,34.23
2022-12-15T11:40:36.624Z,37.43
2022-12-15T11:43:37.194Z,38.63
2022-12-15T11:46:20.305Z,37.27
2022-12-15T11:49:01.926Z,40.60
2022-12-15T11:51:40.963Z,36.27
2022-12-15T11:54:16.661Z,35.70
2022-12-15T11:56:47.497Z,38.93
2022-12-15T11:59:38.114Z,42.00
2022-12-15T12:02:24.947Z,39.13
2022-12-15T12:05:05.590Z,42.27
2022-12-15T12:07:42.460Z,45.07
2022-12-15T12:10:25.037Z,46.67
2022-12-15T12:12:58.907Z,39.03
2022-12-15T12:15:32.627Z,37.10
2022-12-15T12:18:07.040Z,37.20
2022-12-15T12:20:43.303Z,34.20
2022-12-15T12:23:17.631Z,111.43
2022-12-15T12:25:51.643Z,37.67
2022-12-15T12:28:24.183Z,41.90
2022-12-15T12:30:52.382Z,39.50
2022-12-15T12:33:30.405Z,35.07
2022-12-15T12:36:02.980Z,38.57
2022-12-15T12:38:39.086Z,38.70
2022-12-15T12:41:11.031Z,40.50
2022-12-15T12:43:41.543Z,42.37
2022-12-15T12:46:15.343Z,41.90
2022-12-15T12:48:48.429Z,39.70
2022-12-15T12:51:24.740Z,36.90
2022-12-15T12:53:53.846Z,43.13
2022-12-15T12:56:33.578Z,37.97
2022-12-15T12:59:00.975Z,36.77
2022-12-15T13:01:31.113Z,36.73
2022-12-15T13:04:12.445Z,39.97
2022-12-15T13:06:59.615Z,36.20
2022-12-15T13:09:38.999Z,35.77
2022-12-15T13:12:52.313Z,34.87
2022-12-15T13:15:35.724Z,36.07
2022-12-15T13:18:07.109Z,38.57
2022-12-15T13:20:35.885Z,38.90
2022-12-15T13:23:41.838Z,40.37
2022-12-15T13:26:14.816Z,37.40
2022-12-15T13:28:45.934Z,37.37
2022-12-15T13:31:32.331Z,38.07
2022-12-15T13:34:24.384Z,38.53
2022-12-15T13:36:59.450Z,35.97
2022-12-15T13:39:54.144Z,38.13
2022-12-15T13:42:48.268Z,33.93
2022-12-15T13:45:48.974Z,39.20
2022-12-15T13:48:38.929Z,39.30
2022-12-15T13:51:27.731Z,37.03
2022-12-15T13:53:59.453Z,35.80
2022-12-15T13:56:54.834Z,35.73
2022-12-15T13:59:38.259Z,36.80
2022-12-15T14:02:24.392Z,30.97
2022-12-15T14:05:05.316Z,35.40
2022-12-15T14:07:34.835Z,36.70
2022-12-15T14:10:03.922Z,33.63
2022-12-15T14:12:31.036Z,35.17
2022-12-15T14:14:59.930Z,35.20
2022-12-15T14:17:28.212Z,38.07
2022-12-15T14:19:55.130Z,39.67
2022-12-15T14:22:28.751Z,33.13
2022-12-15T14:25:02.492Z,32.43
2022-12-15T14:27:32.029Z,34.73
2022-12-15T14:30:23.429Z,34.30
2022-12-15T14:32:53.893Z,34.83
2022-12-15T14:35:29.317Z,33.03
2022-12-15T14:37:58.714Z,33.80
2022-12-15T14:40:29.103Z,32.07
2022-12-15T14:42:56.728Z,32.43
2022-12-15T14:45:27.722Z,37.70
2022-12-15T14:48:30.564Z,34.77
2022-12-15T14:50:47.699Z,34.90
2022-12-15T14:53:17.945Z,34.07
2022-12-15T14:55:44.989Z,33.03
2022-12-15T14:58:29.463Z,33.27
2022-12-15T15:00:59.412Z,34.33
2022-12-15T15:03:34.305Z,31.87
2022-12-15T15:06:06.402Z,31.87
2022-12-15T15:08:36.698Z,31.20
2022-12-15T15:11:23.212Z,34.00
2022-12-15T15:13:56.078Z,33.30
2022-12-15T15:16:25.061Z,33.30
2022-12-15T15:18:54.623Z,32.97
2022-12-15T15:21:25.251Z,30.47
2022-12-15T15:23:59.869Z,31.83
2022-12-15T15:26:27.507Z,40.87
2022-12-15T15:28:56.485Z,30.03
2022-12-15T15:31:38.363Z,33.83
2022-12-15T15:34:08.576Z,34.57
2022-12-15T15:36:38.514Z,33.53
2022-12-15T15:39:14.017Z,48.20
2022-12-15T15:41:42.806Z,35.43
2022-12-15T15:44:15.114Z,35.73
2022-12-15T15:46:47.560Z,37.23
2022-12-15T15:49:18.004Z,36.13
2022-12-15T15:51:45.289Z,35.50
2022-12-15T15:54:15.781Z,35.97
2022-12-15T15:56:43.829Z,35.57
2022-12-15T15:59:14.162Z,37.63
2022-12-15T16:01:41.507Z,35.13
2022-12-15T16:04:10.310Z,33.73
2022-12-15T16:06:42.071Z,34.17
2022-12-15T16:09:14.776Z,42.03
2022-12-15T16:11:41.777Z,35.17
2022-12-15T16:14:12.161Z,36.20
2022-12-15T16:16:39.570Z,35.90
2022-12-15T16:19:06.968Z,33.03
2022-12-15T16:21:36.164Z,35.97
2022-12-15T16:24:08.459Z,43.20
2022-12-15T16:26:37.499Z,36.93
2022-12-15T16:29:12.746Z,30.83
2022-12-15T16:31:45.142Z,33.63
2022-12-15T16:34:12.545Z,34.80
2022-12-15T16:36:41.129Z,36.00
2022-12-15T16:39:25.375Z,39.37
2022-12-15T16:41:53.286Z,40.67
2022-12-15T16:44:20.159Z,35.37
2022-12-15T16:46:47.219Z,34.30
2022-12-15T16:49:14.131Z,31.17
2022-12-15T16:51:44.169Z,37.30
2022-12-15T16:54:17.056Z,33.10
2022-12-15T16:56:43.969Z,32.67
2022-12-15T16:59:32.522Z,35.70
2022-12-15T17:02:00.660Z,37.37
2022-12-15T17:04:27.836Z,34.60
2022-12-15T17:06:56.191Z,35.83
2022-12-15T17:09:25.476Z,34.00
2022-12-15T17:11:52.573Z,31.40
2022-12-15T17:14:19.550Z,31.27
2022-12-15T17:16:46.666Z,34.67
2022-12-15T17:19:19.221Z,31.83
2022-12-15T17:21:50.989Z,29.50
2022-12-15T17:24:22.251Z,31.83
2022-12-15T17:26:49.847Z,32.57
2022-12-15T17:29:19.250Z,31.77
2022-12-15T17:31:46.351Z,32.87
2022-12-15T17:34:27.112Z,32.10
2022-12-15T17:36:54.255Z,29.23
2022-12-15T17:39:23.457Z,28.73
2022-12-15T17:42:05.924Z,30.97
2022-12-15T17:44:37.406Z,30.57
2022-12-15T17:47:07.665Z,29.67
2022-12-15T17:49:37.275Z,31.90
2022-12-15T17:52:13.171Z,34.17
2022-12-15T17:54:41.449Z,32.30
2022-12-15T17:57:10.522Z,29.93
2022-12-15T17:59:37.490Z,33.47
2022-12-15T18:02:04.471Z,35.23
2022-12-15T18:04:31.469Z,30.23
2022-12-15T18:07:02.116Z,28.40
2022-12-15T18:09:30.000Z,32.73
2022-12-15T18:11:58.289Z,35.20
2022-12-15T18:14:25.139Z,29.43
2022-12-15T18:16:52.081Z,34.73
2022-12-15T18:19:19.083Z,31.60
2022-12-15T18:21:46.006Z,28.70
2022-12-15T18:24:13.746Z,148.20
2022-12-15T18:26:40.753Z,34.80
2022-12-15T18:29:13.678Z,31.10
2022-12-15T18:31:41.850Z,35.67
2022-12-15T18:34:12.906Z,30.03
2022-12-15T18:36:40.216Z,28.43
2022-12-15T18:39:17.247Z,32.80
2022-12-15T18:41:44.257Z,27.37
2022-12-15T18:44:19.118Z,28.40
2022-12-15T18:46:48.082Z,28.27
2022-12-15T18:49:15.469Z,25.40
2022-12-15T18:51:42.542Z,27.30
2022-12-15T18:54:16.995Z,27.73
2022-12-15T18:56:43.901Z,33.33
2022-12-15T18:59:17.110Z,32.40
2022-12-15T19:01:45.799Z,27.50
2022-12-15T19:04:12.835Z,27.90
2022-12-15T19:06:40.783Z,30.63
2022-12-15T19:09:14.433Z,28.63
2022-12-15T19:12:01.665Z,31.03
2022-12-15T19:14:42.646Z,29.33
2022-12-15T19:17:30.717Z,31.00
2022-12-15T19:20:16.526Z,26.17
2022-12-15T19:22:44.078Z,28.03
2022-12-15T19:25:20.468Z,21.93
2022-12-15T19:27:50.414Z,26.53
2022-12-15T19:30:20.012Z,22.37
2022-12-15T19:32:46.913Z,27.30
2022-12-15T19:35:13.871Z,25.20
2022-12-15T19:37:42.765Z,25.90
2022-12-15T19:40:19.247Z,26.43
2022-12-15T19:42:47.598Z,30.23
2022-12-15T19:45:16.629Z,22.40
2022-12-15T19:47:45.148Z,26.43
2022-12-15T19:50:15.003Z,26.10
2022-12-15T19:52:43.237Z,27.67
2022-12-15T19:55:15.411Z,25.70
2022-12-15T19:57:42.852Z,26.23
2022-12-15T20:00:17.558Z,24.33
2022-12-15T20:02:45.981Z,22.53
2022-12-15T20:05:13.039Z,22.03
2022-12-15T20:07:40.087Z,22.33
2022-12-15T20:10:22.008Z,27.00
2022-12-15T20:12:51.559Z,21.17
2022-12-15T20:15:21.440Z,24.03
2022-12-15T20:17:55.497Z,23.57
2022-12-15T20:20:23.472Z,23.73
2022-12-15T20:22:53.623Z,25.03
2022-12-15T20:25:23.967Z,21.73
2022-12-15T20:27:51.362Z,25.27
2022-12-15T20:30:20.277Z,23.37
2022-12-15T20:32:48.269Z,24.20
2022-12-15T20:35:19.023Z,24.53
2022-12-15T20:37:47.009Z,20.50
2022-12-15T20:40:19.512Z,25.60
2022-12-15T20:42:47.057Z,20.97
2022-12-15T20:45:15.547Z,22.00
2022-12-15T20:47:45.227Z,20.48
2022-12-15T20:50:27.777Z,21.13
2022-12-15T20:52:55.406Z,24.07
2022-12-15T20:55:22.423Z,22.93
2022-12-15T20:57:49.559Z,18.83
2022-12-15T21:00:18.230Z,18.63
2022-12-15T21:02:46.603Z,23.93
2022-12-15T21:05:18.867Z,21.33
2022-12-15T21:07:47.973Z,19.43
2022-12-15T21:10:17.336Z,22.27
2022-12-15T21:12:47.258Z,15.77
2022-12-15T21:15:16.020Z,18.37
2022-12-15T21:17:43.819Z,16.70
2022-12-15T21:20:12.546Z,17.47
2022-12-15T21:22:41.218Z,20.40
2022-12-15T21:25:22.669Z,19.90
2022-12-15T21:27:50.339Z,23.10
2022-12-15T21:30:23.125Z,23.97
2022-12-15T21:32:50.876Z,19.23
2022-12-15T21:35:19.207Z,21.50
2022-12-15T21:37:49.709Z,17.97
2022-12-15T21:40:22.334Z,17.20
2022-12-15T21:42:50.144Z,16.77
2022-12-15T21:45:19.070Z,14.83
2022-12-15T21:48:04.581Z,20.77
2022-12-15T21:50:32.052Z,18.90
2022-12-15T21:52:59.883Z,22.83
2022-12-15T21:55:29.573Z,15.87
2022-12-15T21:57:57.380Z,18.13
2022-12-15T22:00:25.263Z,14.93
2022-12-15T22:02:53.518Z,15.10
2022-12-15T22:05:24.105Z,17.03
2022-12-15T22:07:51.701Z,14.47
2022-12-15T22:10:19.142Z,17.53
2022-12-15T22:12:57.462Z,13.50
2022-12-15T22:15:26.497Z,14.87
2022-12-15T22:17:53.446Z,16.07
2022-12-15T22:20:22.402Z,13.77
2022-12-15T22:22:49.717Z,16.10
2022-12-15T22:25:18.149Z,13.47
2022-12-15T22:27:47.144Z,12.13
2022-12-15T22:30:16.052Z,14.47
2022-12-15T22:32:42.949Z,17.10
2022-12-15T22:35:15.360Z,14.00
2022-12-15T22:37:42.611Z,14.20
2022-12-15T22:40:11.170Z,12.73
2022-12-15T22:42:39.990Z,14.47
2022-12-15T22:45:15.476Z,15.73
2022-12-15T22:47:43.447Z,17.00
2022-12-15T22:50:15.728Z,17.83
2022-12-15T22:52:45.544Z,19.53
2022-12-15T22:55:16.777Z,19.07
2022-12-15T22:57:46.191Z,19.57
2022-12-15T23:00:15.131Z,17.20
2022-12-15T23:02:44.064Z,16.20
2022-12-15T23:05:13.969Z,17.03
2022-12-15T23:07:41.113Z,21.27
2022-12-15T23:10:30.508Z,25.17
2022-12-15T23:12:57.403Z,22.57
2022-12-15T23:15:46.773Z,23.03
2022-12-15T23:18:14.012Z,21.70
2022-12-15T23:20:41.327Z,20.97
2022-12-15T23:23:08.389Z,18.63
2022-12-15T23:25:35.339Z,18.80
2022-12-15T23:28:02.207Z,15.23
2022-12-15T23:30:30.456Z,15.50
2022-12-15T23:32:57.382Z,14.43
2022-12-15T23:35:24.353Z,16.37
2022-12-15T23:37:51.284Z,14.63
2022-12-15T23:40:22.069Z,14.43
2022-12-15T23:42:49.148Z,13.20
2022-12-15T23:45:16.520Z,12.43
2022-12-15T23:47:44.735Z,13.00
2022-12-15T23:50:11.665Z,11.53
2022-12-15T23:52:38.566Z,9.87
2022-12-15T23:55:09.865Z,10.53
2022-12-15T23:57:37.049Z,7.30
